Time;durP1;ratioP1;P1;durP2;ratioP2;P2;SDS_P1;SDS_P2;PMS_P1;PMS_P2;Temp;Humidity;BMP_temperature;BMP_pressure;BME280_temperature;BME280_humidity;BME280_pressure;Samples;Min_cycle;Max_cycle;Signal;HPM_P1;HPM_P2
2022/05/28 00:00:05;;;;;;;6.90;1.50;;;11.10;99.90;;;;;;5046998;28;20217;-71
2022/05/28 00:02:58;;;;;;;6.45;1.73;;;11.00;99.90;;;;;;5055686;28;20216;-72
2022/05/28 00:05:47;;;;;;;4.70;2.00;;;11.10;99.90;;;;;;5059287;28;20614;-73
2022/05/28 00:08:40;;;;;;;5.50;1.85;;;11.10;99.90;;;;;;5057028;28;20223;-71
2022/05/28 00:11:31;;;;;;;6.07;1.73;;;11.00;99.90;;;;;;5043254;28;20310;-72
2022/05/28 00:14:20;;;;;;;3.90;1.40;;;11.00;99.90;;;;;;5066888;28;20223;-72
2022/05/28 00:17:12;;;;;;;5.57;1.65;;;10.90;99.90;;;;;;5057266;28;20220;-72
2022/05/28 00:20:03;;;;;;;5.40;1.80;;;10.80;99.90;;;;;;5061713;28;20311;-72
2022/05/28 00:22:52;;;;;;;3.83;1.60;;;10.80;99.90;;;;;;5043292;28;20219;-73
2022/05/28 00:25:40;;;;;;;6.28;1.52;;;10.80;99.90;;;;;;5053944;28;20220;-72
2022/05/28 00:28:29;;;;;;;4.00;1.42;;;10.70;99.90;;;;;;5043590;28;20231;-72
2022/05/28 00:31:18;;;;;;;6.28;1.48;;;10.70;99.90;;;;;;5069509;28;20217;-73
2022/05/28 00:34:06;;;;;;;10.70;2.35;;;10.70;99.90;;;;;;5044618;28;20290;-72
2022/05/28 00:37:00;;;;;;;3.50;1.50;;;10.70;99.90;;;;;;5043229;28;20223;-72
2022/05/28 00:39:52;;;;;;;6.95;1.63;;;10.70;99.90;;;;;;5056709;28;20311;-72
2022/05/28 00:42:41;;;;;;;4.30;1.42;;;10.70;99.90;;;;;;5056446;28;20341;-73
2022/05/28 00:45:32;;;;;;;5.63;1.58;;;10.60;99.90;;;;;;5059268;28;20296;-72
2022/05/28 00:48:25;;;;;;;5.53;1.60;;;10.70;99.90;;;;;;5045062;28;20240;-76
2022/05/28 00:51:16;;;;;;;2.95;1.67;;;10.60;99.90;;;;;;5052363;28;20220;-71
2022/05/28 00:54:08;;;;;;;7.28;1.70;;;10.50;99.90;;;;;;5059669;28;20327;-71
2022/05/28 00:56:58;;;;;;;3.00;1.40;;;10.60;99.90;;;;;;5051795;28;20221;-73
2022/05/28 00:59:50;;;;;;;7.05;1.63;;;10.60;99.90;;;;;;5049400;28;20579;-72
2022/05/28 01:02:46;;;;;;;7.35;1.48;;;10.50;99.90;;;;;;5072892;28;20276;-73
2022/05/28 01:05:42;;;;;;;6.20;1.73;;;10.60;99.90;;;;;;5056961;28;20261;-73
2022/05/28 01:08:38;;;;;;;3.05;1.52;;;10.70;99.90;;;;;;5043130;28;20228;-73
2022/05/28 01:11:34;;;;;;;5.75;1.63;;;10.70;99.90;;;;;;5049422;28;20692;-72
2022/05/28 01:14:26;;;;;;;5.80;1.40;;;10.60;99.90;;;;;;5067389;28;20836;-72
2022/05/28 01:17:20;;;;;;;4.45;1.70;;;10.60;99.90;;;;;;5045219;28;20242;-72
2022/05/28 01:20:14;;;;;;;4.70;1.60;;;10.60;99.90;;;;;;5048889;28;20239;-72
2022/05/28 01:23:17;;;;;;;5.00;1.60;;;10.60;99.90;;;;;;5054288;28;20233;-71
2022/05/28 01:26:15;;;;;;;5.57;1.40;;;10.60;99.90;;;;;;5065359;28;20706;-71
2022/05/28 01:29:13;;;;;;;2.25;1.40;;;10.60;99.90;;;;;;5034452;28;20232;-71
2022/05/28 01:32:02;;;;;;;6.90;1.42;;;10.50;99.90;;;;;;5040427;28;26693;-72
2022/05/28 01:34:51;;;;;;;5.07;1.50;;;10.60;99.90;;;;;;5042545;28;20310;-72
2022/05/28 01:37:40;;;;;;;5.57;1.48;;;10.50;99.90;;;;;;5056684;28;20514;-71
2022/05/28 01:40:30;;;;;;;5.30;1.50;;;10.40;99.90;;;;;;5040411;28;20362;-72
2022/05/28 01:43:20;;;;;;;4.82;1.52;;;10.50;99.90;;;;;;5049708;28;20268;-71
2022/05/28 01:46:12;;;;;;;4.70;1.40;;;10.50;99.90;;;;;;5039680;28;20987;-72
2022/05/28 01:49:02;;;;;;;3.45;1.35;;;10.50;99.90;;;;;;5045408;28;20421;-72
2022/05/28 01:51:54;;;;;;;5.38;1.50;;;10.50;99.90;;;;;;5056035;28;20220;-71
2022/05/28 01:54:45;;;;;;;4.18;1.60;;;10.40;99.90;;;;;;5051681;28;20824;-72
2022/05/28 01:57:34;;;;;;;4.25;1.42;;;10.40;99.90;;;;;;5061247;28;20334;-73
2022/05/28 02:00:23;;;;;;;7.75;1.60;;;10.50;99.90;;;;;;5039117;28;20252;-71
2022/05/28 02:03:13;;;;;;;4.68;1.27;;;10.50;99.90;;;;;;5045093;28;20227;-71
2022/05/28 02:06:02;;;;;;;6.03;1.40;;;10.50;99.90;;;;;;5040088;28;20243;-71
2022/05/28 02:08:52;;;;;;;3.20;1.48;;;10.40;99.90;;;;;;5039822;28;20220;-71
2022/05/28 02:11:53;;;;;;;3.58;1.42;;;10.50;99.90;;;;;;5042015;28;20903;-70
2022/05/28 02:14:52;;;;;;;5.13;1.48;;;10.50;99.90;;;;;;5054222;28;20273;-71
2022/05/28 02:17:52;;;;;;;4.30;1.50;;;10.50;99.90;;;;;;5056155;28;20227;-70
2022/05/28 02:21:01;;;;;;;4.20;1.60;;;10.40;99.90;;;;;;5045201;28;20220;-71
2022/05/28 02:23:56;;;;;;;3.42;1.33;;;10.30;99.90;;;;;;5040515;28;20216;-70
2022/05/28 02:26:49;;;;;;;5.97;1.75;;;10.40;99.90;;;;;;5056486;28;20236;-71
2022/05/28 02:29:38;;;;;;;6.57;1.55;;;10.40;99.90;;;;;;5042455;28;20757;-71
2022/05/28 02:32:26;;;;;;;5.05;1.30;;;10.50;99.90;;;;;;5045565;28;20241;-71
2022/05/28 02:35:15;;;;;;;6.63;1.45;;;10.50;99.90;;;;;;5058134;28;20236;-73
2022/05/28 02:38:06;;;;;;;3.85;1.30;;;10.60;99.90;;;;;;5042426;28;20705;-71
2022/05/28 02:40:55;;;;;;;4.00;1.55;;;10.50;99.90;;;;;;5058652;28;20223;-72
2022/05/28 02:43:44;;;;;;;4.82;1.52;;;10.50;99.90;;;;;;5057677;28;20214;-71
2022/05/28 02:46:35;;;;;;;4.55;1.60;;;10.50;99.90;;;;;;5045975;28;20232;-73
2022/05/28 02:49:25;;;;;;;7.43;1.80;;;10.50;99.90;;;;;;5039308;28;20386;-73
2022/05/28 02:52:14;;;;;;;6.37;1.60;;;10.40;99.90;;;;;;5052368;28;22062;-72
2022/05/28 02:55:05;;;;;;;4.73;1.43;;;10.50;99.90;;;;;;5059507;28;20796;-72
2022/05/28 02:57:54;;;;;;;5.03;1.58;;;10.50;99.90;;;;;;5063138;28;20213;-73
2022/05/28 03:00:42;;;;;;;7.47;1.90;;;10.70;99.90;;;;;;5067294;28;21038;-73
2022/05/28 03:03:35;;;;;;;4.53;1.58;;;10.70;99.90;;;;;;5060377;28;20222;-73
2022/05/28 03:06:24;;;;;;;6.78;1.52;;;10.80;99.90;;;;;;5051196;28;20247;-71
2022/05/28 03:09:13;;;;;;;5.10;1.70;;;10.90;99.90;;;;;;5044989;28;20220;-72
2022/05/28 03:12:04;;;;;;;4.43;1.58;;;11.00;99.90;;;;;;5054493;28;20765;-71
2022/05/28 03:14:52;;;;;;;2.83;1.13;;;11.00;99.90;;;;;;5066968;28;20272;-71
2022/05/28 03:17:41;;;;;;;6.22;1.25;;;10.90;99.90;;;;;;5054746;28;20220;-71
2022/05/28 03:20:31;;;;;;;7.38;1.58;;;10.90;99.90;;;;;;5038925;28;20217;-72
2022/05/28 03:23:20;;;;;;;3.83;1.67;;;11.10;99.90;;;;;;5037269;28;20926;-72
2022/05/28 03:26:13;;;;;;;5.13;1.65;;;11.10;99.90;;;;;;5050660;28;20221;-72
2022/05/28 03:29:04;;;;;;;5.57;1.60;;;11.10;99.90;;;;;;5056121;28;20243;-72
2022/05/28 03:31:53;;;;;;;6.90;1.85;;;11.10;99.90;;;;;;5039594;28;20212;-71
2022/05/28 03:34:46;;;;;;;4.13;1.70;;;11.20;99.90;;;;;;5053016;28;20311;-70
2022/05/28 03:37:35;;;;;;;4.72;1.40;;;11.20;99.90;;;;;;5039509;28;20224;-70
2022/05/28 03:40:24;;;;;;;4.30;1.38;;;11.20;99.90;;;;;;5038289;28;20228;-71
2022/05/28 03:43:16;;;;;;;6.72;1.45;;;11.20;99.90;;;;;;5053808;28;20239;-71
2022/05/28 03:46:21;;;;;;;4.82;1.70;;;11.20;99.90;;;;;;5036112;28;20323;-71
2022/05/28 03:49:17;;;;;;;3.92;1.48;;;11.30;99.90;;;;;;5035531;28;20227;-72
2022/05/28 03:52:07;;;;;;;9.93;1.73;;;11.20;99.90;;;;;;5052069;28;21142;-71
2022/05/28 03:54:55;;;;;;;4.82;1.60;;;11.40;99.90;;;;;;5052337;28;20227;-71
2022/05/28 03:57:46;;;;;;;4.32;1.77;;;11.30;99.90;;;;;;5038932;28;20246;-71
2022/05/28 04:00:35;;;;;;;5.97;2.00;;;11.30;99.90;;;;;;5065591;28;20231;-70
2022/05/28 04:03:25;;;;;;;4.90;1.80;;;11.40;99.90;;;;;;5036301;28;20251;-71
2022/05/28 04:06:14;;;;;;;4.75;1.70;;;11.30;99.90;;;;;;5066982;28;22386;-71
2022/05/28 04:09:03;;;;;;;9.82;2.08;;;11.40;99.90;;;;;;5040547;28;20251;-70
2022/05/28 04:11:52;;;;;;;4.88;1.90;;;11.30;99.90;;;;;;5066702;28;20216;-71
2022/05/28 04:14:41;;;;;;;4.45;1.65;;;11.30;99.90;;;;;;5039283;28;20231;-72
2022/05/28 04:17:30;;;;;;;7.00;1.60;;;11.20;99.90;;;;;;5051711;28;20228;-72
2022/05/28 04:20:21;;;;;;;6.38;2.00;;;11.10;99.90;;;;;;5037443;28;20223;-70
2022/05/28 04:23:10;;;;;;;6.03;1.88;;;11.00;99.90;;;;;;5054209;28;20269;-72
2022/05/28 04:25:58;;;;;;;8.00;2.05;;;11.10;99.90;;;;;;5052825;28;20599;-72
2022/05/28 04:28:47;;;;;;;5.22;1.83;;;11.10;99.90;;;;;;5058925;28;20237;-71
2022/05/28 04:31:36;;;;;;;5.22;1.73;;;11.20;99.90;;;;;;5059795;28;20208;-70
2022/05/28 04:34:25;;;;;;;5.95;1.90;;;11.10;99.90;;;;;;5074253;28;20241;-70
2022/05/28 04:37:15;;;;;;;8.80;2.00;;;11.20;99.90;;;;;;5056693;28;20233;-71
2022/05/28 04:40:05;;;;;;;4.60;2.00;;;11.30;99.90;;;;;;5049344;28;20718;-71
2022/05/28 04:42:57;;;;;;;6.03;2.05;;;11.30;99.90;;;;;;5068424;28;20300;-71
2022/05/28 04:45:46;;;;;;;5.65;2.03;;;11.30;99.90;;;;;;5059728;28;20213;-71
2022/05/28 04:48:35;;;;;;;6.50;2.17;;;11.30;99.90;;;;;;5063901;28;20288;-70
2022/05/28 04:51:24;;;;;;;6.35;2.20;;;11.30;99.90;;;;;;5064215;28;20224;-72
2022/05/28 04:54:14;;;;;;;8.85;2.05;;;11.30;99.90;;;;;;5056371;28;20215;-70
2022/05/28 04:57:03;;;;;;;3.85;1.77;;;11.40;99.90;;;;;;5062877;28;20219;-70
2022/05/28 04:59:52;;;;;;;4.05;1.55;;;11.50;99.90;;;;;;5061857;28;21094;-72
2022/05/28 05:02:41;;;;;;;6.97;1.73;;;11.50;99.90;;;;;;5046138;28;20361;-72
2022/05/28 05:05:30;;;;;;;6.03;1.77;;;11.50;99.90;;;;;;5059759;28;20217;-72
2022/05/28 05:08:18;;;;;;;6.47;2.00;;;11.50;99.90;;;;;;5046070;28;20227;-72
2022/05/28 05:11:08;;;;;;;4.47;1.60;;;11.40;99.90;;;;;;5038730;28;20752;-71
2022/05/28 05:13:57;;;;;;;5.82;2.10;;;11.40;99.90;;;;;;5070306;28;20220;-72
2022/05/28 05:16:46;;;;;;;5.95;1.77;;;11.50;99.90;;;;;;5058403;28;20703;-73
2022/05/28 05:19:35;;;;;;;4.10;1.85;;;11.50;99.90;;;;;;5062537;28;20808;-71
2022/05/28 05:22:28;;;;;;;4.05;1.52;;;11.70;99.90;;;;;;5052340;28;20694;-73
2022/05/28 05:25:17;;;;;;;6.28;1.90;;;11.80;99.90;;;;;;5047500;28;20216;-72
2022/05/28 05:28:08;;;;;;;6.95;1.70;;;11.90;99.90;;;;;;5044159;28;20220;-72
2022/05/28 05:30:56;;;;;;;5.75;2.13;;;11.90;99.90;;;;;;5056319;28;20239;-71
2022/05/28 05:33:45;;;;;;;6.43;2.13;;;11.90;99.90;;;;;;5061986;28;20231;-72
2022/05/28 05:36:35;;;;;;;6.03;1.77;;;12.20;99.90;;;;;;5056196;28;20287;-69
2022/05/28 05:39:23;;;;;;;6.57;2.10;;;12.50;99.90;;;;;;5047469;28;20222;-71
2022/05/28 05:42:12;;;;;;;4.03;1.95;;;12.20;99.90;;;;;;5052391;28;20366;-72
2022/05/28 05:45:02;;;;;;;7.95;2.50;;;12.40;99.90;;;;;;5061597;28;20307;-72
2022/05/28 05:47:51;;;;;;;7.15;2.00;;;12.80;99.90;;;;;;5048067;28;20224;-72
2022/05/28 05:50:40;;;;;;;5.22;2.15;;;12.80;99.90;;;;;;5045760;28;20594;-71
2022/05/28 05:53:29;;;;;;;4.47;1.80;;;12.70;99.90;;;;;;5053678;28;20989;-72
2022/05/28 05:56:17;;;;;;;3.80;1.98;;;12.50;99.90;;;;;;5061971;28;20220;-74
2022/05/28 05:59:07;;;;;;;6.57;2.03;;;12.60;99.90;;;;;;5059423;28;20634;-72
2022/05/28 06:01:57;;;;;;;6.00;2.42;;;12.60;99.90;;;;;;5043856;28;20231;-73
2022/05/28 06:04:45;;;;;;;7.03;2.58;;;13.10;99.90;;;;;;5056286;28;20228;-73
2022/05/28 06:07:34;;;;;;;5.55;2.47;;;13.10;99.90;;;;;;5044506;28;20221;-73
2022/05/28 06:10:23;;;;;;;4.82;2.10;;;13.10;99.90;;;;;;5069889;28;20224;-73
2022/05/28 06:13:12;;;;;;;8.95;1.98;;;13.10;99.90;;;;;;5045956;28;20231;-71
2022/05/28 06:16:00;;;;;;;5.72;2.42;;;13.00;99.90;;;;;;5052918;28;20265;-74
2022/05/28 06:18:50;;;;;;;8.48;2.30;;;13.10;99.90;;;;;;5050640;28;20287;-73
2022/05/28 06:21:39;;;;;;;5.55;2.30;;;13.10;99.90;;;;;;5059234;28;20691;-71
2022/05/28 06:24:28;;;;;;;6.22;2.13;;;13.00;99.90;;;;;;5063854;28;20655;-71
2022/05/28 06:27:17;;;;;;;3.05;1.83;;;13.10;99.90;;;;;;5051915;28;20223;-71
2022/05/28 06:30:07;;;;;;;5.53;2.28;;;13.40;99.90;;;;;;5065215;28;20315;-70
2022/05/28 06:32:55;;;;;;;5.88;2.28;;;13.40;99.90;;;;;;5063569;28;20663;-72
2022/05/28 06:35:46;;;;;;;6.82;2.25;;;13.20;99.90;;;;;;5079961;28;20231;-72
2022/05/28 06:38:35;;;;;;;5.50;2.00;;;13.40;99.90;;;;;;5058786;28;20236;-71
2022/05/28 06:41:24;;;;;;;7.15;1.90;;;13.60;99.90;;;;;;5050205;28;20302;-70
2022/05/28 06:44:13;;;;;;;4.60;1.77;;;14.00;99.90;;;;;;5063103;28;20216;-72
2022/05/28 06:47:04;;;;;;;3.85;1.30;;;13.70;99.90;;;;;;5062301;28;20208;-71
2022/05/28 06:52:57;;;;;;;5.05;1.80;;;14.00;99.90;;;;;;5064859;28;20590;-72
2022/05/28 06:55:46;;;;;;;3.95;1.70;;;13.70;99.90;;;;;;5051563;28;20216;-73
2022/05/28 06:58:35;;;;;;;4.68;1.52;;;13.80;99.90;;;;;;5062120;28;20882;-73
2022/05/28 07:01:24;;;;;;;4.28;1.50;;;14.00;99.90;;;;;;5071815;28;20224;-73
2022/05/28 07:04:13;;;;;;;5.60;1.52;;;13.80;99.90;;;;;;5062934;28;20228;-72
2022/05/28 07:07:02;;;;;;;3.30;1.48;;;13.40;99.90;;;;;;5053122;28;20221;-73
2022/05/28 07:09:52;;;;;;;5.13;1.40;;;13.50;99.90;;;;;;5061571;28;20215;-73
2022/05/28 07:12:40;;;;;;;5.47;1.60;;;13.40;99.90;;;;;;5050646;28;20346;-71
2022/05/28 07:15:29;;;;;;;6.70;1.52;;;13.50;99.90;;;;;;5062813;28;20265;-72
2022/05/28 07:18:19;;;;;;;1.48;1.10;;;13.90;99.90;;;;;;5047978;28;20217;-73
2022/05/28 07:21:08;;;;;;;6.82;1.55;;;14.60;99.90;;;;;;5054050;28;20221;-71
2022/05/28 07:23:59;;;;;;;3.75;1.50;;;14.40;99.90;;;;;;5047789;28;20769;-72
2022/05/28 07:26:52;;;;;;;3.20;1.13;;;14.00;99.90;;;;;;5063088;28;20301;-74
2022/05/28 07:29:41;;;;;;;5.07;1.50;;;14.10;99.90;;;;;;5061413;28;21501;-73
2022/05/28 07:32:30;;;;;;;4.97;1.45;;;14.20;99.90;;;;;;5067282;28;20216;-72
2022/05/28 07:35:19;;;;;;;1.70;1.08;;;14.30;99.90;;;;;;5072006;28;20728;-72
2022/05/28 07:38:15;;;;;;;2.42;1.05;;;14.00;99.90;;;;;;5047676;28;20703;-73
2022/05/28 07:41:04;;;;;;;3.15;1.30;;;13.70;99.90;;;;;;5046632;28;20670;-73
2022/05/28 07:43:57;;;;;;;2.53;1.52;;;14.00;99.90;;;;;;5055341;28;20252;-71
2022/05/28 07:46:50;;;;;;;6.25;1.67;;;14.30;99.90;;;;;;5053044;28;20718;-71
2022/05/28 07:49:40;;;;;;;7.00;1.60;;;14.10;99.90;;;;;;5062820;28;20386;-71
2022/05/28 07:52:29;;;;;;;8.82;1.70;;;13.70;99.90;;;;;;5037680;28;20244;-74
2022/05/28 07:55:18;;;;;;;5.55;1.30;;;13.70;99.90;;;;;;5041511;28;20223;-74
2022/05/28 07:58:08;;;;;;;6.78;1.25;;;17.00;99.90;;;;;;5036353;28;20225;-75
2022/05/28 08:00:59;;;;;;;6.75;1.80;;;16.20;99.90;;;;;;5042684;28;20236;-72
2022/05/28 08:03:52;;;;;;;5.53;1.50;;;19.40;93.90;;;;;;5038970;28;20303;-76
2022/05/28 08:06:41;;;;;;;8.13;1.42;;;18.20;86.30;;;;;;5042147;28;20299;-72
2022/05/28 08:09:29;;;;;;;2.97;1.58;;;17.60;84.10;;;;;;5065505;28;20216;-74
2022/05/28 08:12:18;;;;;;;5.80;1.40;;;16.60;88.20;;;;;;5057890;28;20963;-70
2022/05/28 08:15:08;;;;;;;3.78;1.60;;;17.20;90.10;;;;;;5051925;28;20225;-73
2022/05/28 08:17:58;;;;;;;5.75;1.58;;;16.00;91.20;;;;;;5035499;28;20227;-73
2022/05/28 08:23:54;;;;;;;3.90;1.67;;;15.10;93.90;;;;;;5049281;28;20361;-77
2022/05/28 08:26:42;;;;;;;4.28;1.77;;;15.70;93.30;;;;;;5066219;28;20256;-81
2022/05/28 08:29:31;;;;;;;6.68;1.70;;;19.00;88.50;;;;;;5050228;28;20232;-77
2022/05/28 08:32:20;;;;;;;5.07;1.40;;;21.20;79.60;;;;;;5039147;28;20235;-74
2022/05/28 08:35:10;;;;;;;4.18;1.40;;;22.90;70.90;;;;;;5059708;28;20454;-74
2022/05/28 08:38:04;;;;;;;4.80;2.05;;;22.30;69.40;;;;;;5049340;28;20270;-73
2022/05/28 08:40:57;;;;;;;5.60;1.17;;;18.00;77.40;;;;;;5060220;28;20850;-76
2022/05/28 08:43:50;;;;;;;6.22;1.70;;;16.90;80.70;;;;;;5042042;28;20221;-75
2022/05/28 08:46:38;;;;;;;4.82;1.60;;;16.90;82.50;;;;;;5055378;28;21263;-81
2022/05/28 08:49:29;;;;;;;4.85;1.58;;;22.50;70.60;;;;;;5044476;28;20239;-75
2022/05/28 08:52:24;;;;;;;3.33;1.23;;;24.20;63.10;;;;;;5049780;28;20580;-75
2022/05/28 08:55:18;;;;;;;4.55;1.40;;;24.60;61.20;;;;;;5051841;28;20226;-75
2022/05/28 08:58:08;;;;;;;3.30;1.50;;;22.00;63.40;;;;;;5051222;28;20230;-76
2022/05/28 09:01:02;;;;;;;3.97;1.55;;;23.30;64.90;;;;;;5038738;28;20224;-75
2022/05/28 09:03:54;;;;;;;4.05;1.70;;;24.70;60.40;;;;;;5048725;28;20761;-75
2022/05/28 09:06:46;;;;;;;3.83;1.30;;;26.30;56.70;;;;;;5055720;28;20217;-76
2022/05/28 09:09:41;;;;;;;3.53;1.20;;;25.90;57.60;;;;;;5051209;28;20223;-76
2022/05/28 09:12:39;;;;;;;3.95;1.50;;;26.30;56.10;;;;;;5059420;28;20216;-76
2022/05/28 09:15:27;;;;;;;5.20;1.40;;;27.50;53.40;;;;;;5057455;28;20220;-76
2022/05/28 09:18:18;;;;;;;4.88;1.52;;;24.50;54.80;;;;;;5047228;28;20480;-76
2022/05/28 09:21:08;;;;;;;6.07;2.10;;;27.40;54.40;;;;;;5047840;28;20235;-76
2022/05/28 09:24:02;;;;;;;3.47;1.73;;;26.80;50.50;;;;;;5047069;28;20263;-76
2022/05/28 09:27:01;;;;;;;6.25;1.55;;;21.10;61.40;;;;;;5048918;28;20338;-74
2022/05/28 09:30:10;;;;;;;5.70;1.88;;;21.80;58.90;;;;;;5064717;28;20216;-75
2022/05/28 09:33:16;;;;;;;5.47;1.45;;;26.40;55.80;;;;;;5066633;28;20216;-76
2022/05/28 09:36:11;;;;;;;5.40;1.50;;;23.30;55.50;;;;;;5052060;28;20307;-78
2022/05/28 09:39:09;;;;;;;4.00;1.35;;;22.30;60.90;;;;;;5047288;28;20219;-76
2022/05/28 09:42:08;;;;;;;5.15;1.60;;;21.60;59.30;;;;;;5056388;28;20231;-75
2022/05/28 09:45:10;;;;;;;6.90;1.60;;;22.90;59.30;;;;;;5052866;28;20217;-76
2022/05/28 09:48:00;;;;;;;4.25;1.60;;;22.60;61.20;;;;;;5058185;28;20212;-76
2022/05/28 09:50:53;;;;;;;4.55;1.50;;;25.70;55.00;;;;;;5080090;28;20667;-76
2022/05/28 09:57:00;;;;;;;3.85;1.50;;;24.40;53.20;;;;;;5051894;28;20219;-76
2022/05/28 09:59:59;;;;;;;4.50;1.67;;;24.50;57.50;;;;;;5054728;28;20317;-76
2022/05/28 10:05:59;;;;;;;3.80;1.60;;;22.00;57.30;;;;;;5064446;28;20216;-75
2022/05/28 10:08:48;;;;;;;10.10;1.70;;;20.40;60.80;;;;;;5051653;28;20341;-76
2022/05/28 10:11:36;;;;;;;8.77;1.48;;;18.50;68.50;;;;;;5053977;28;20329;-76
2022/05/28 10:14:29;;;;;;;6.57;1.55;;;17.10;85.20;;;;;;5050195;28;20227;-75
2022/05/28 10:17:25;;;;;;;2.20;0.90;;;16.10;99.90;;;;;;5066779;28;20223;-75
2022/05/28 10:20:17;;;;;;;2.90;0.90;;;15.60;99.90;;;;;;5062565;28;20232;-75
2022/05/28 10:23:14;;;;;;;1.55;1.00;;;15.80;99.90;;;;;;5056735;28;20322;-75
2022/05/28 10:26:04;;;;;;;2.42;1.00;;;15.80;99.90;;;;;;5055258;28;20307;-75
2022/05/28 10:28:56;;;;;;;2.70;0.90;;;15.70;99.90;;;;;;5047157;28;20647;-75
2022/05/28 10:31:49;;;;;;;3.15;1.20;;;16.00;99.90;;;;;;5056318;28;20300;-76
2022/05/28 10:34:39;;;;;;;2.78;1.20;;;17.00;99.90;;;;;;5060201;28;20231;-75
2022/05/28 10:37:28;;;;;;;3.25;1.42;;;16.90;99.90;;;;;;5049255;28;20216;-75
2022/05/28 10:40:24;;;;;;;3.50;1.27;;;17.90;99.90;;;;;;5056654;28;20318;-76
2022/05/28 10:43:30;;;;;;;3.67;1.38;;;18.00;99.90;;;;;;5044297;28;20235;-75
2022/05/28 10:46:28;;;;;;;5.35;1.60;;;18.50;99.90;;;;;;5054416;28;20954;-76
2022/05/28 10:49:31;;;;;;;6.25;2.22;;;17.70;99.90;;;;;;5062451;28;20220;-75
2022/05/28 10:52:33;;;;;;;4.53;1.77;;;16.60;99.90;;;;;;5050191;28;20586;-75
2022/05/28 10:55:30;;;;;;;4.40;1.70;;;15.90;99.90;;;;;;5050689;28;20237;-76
2022/05/28 10:58:34;;;;;;;3.70;1.60;;;15.90;99.90;;;;;;5055179;28;20536;-75
2022/05/28 11:01:37;;;;;;;5.82;1.70;;;15.80;99.90;;;;;;5060981;28;20225;-75
2022/05/28 11:04:55;;;;;;;5.18;1.75;;;15.70;99.90;;;;;;5051026;28;20816;-75
2022/05/28 11:08:04;;;;;;;8.20;1.70;;;15.20;99.90;;;;;;5059522;28;20295;-75
2022/05/28 11:11:04;;;;;;;3.67;1.50;;;15.20;99.90;;;;;;5046943;28;20251;-74
2022/05/28 11:14:11;;;;;;;3.90;1.30;;;14.90;99.90;;;;;;5058594;28;20224;-74
2022/05/28 11:17:20;;;;;;;6.57;2.10;;;14.50;99.90;;;;;;5058049;28;20281;-75
2022/05/28 11:20:24;;;;;;;2.85;1.50;;;14.20;99.90;;;;;;5057261;28;20224;-73
2022/05/28 11:23:26;;;;;;;6.05;1.30;;;14.50;99.90;;;;;;5049778;28;20378;-73
2022/05/28 11:26:26;;;;;;;2.97;1.20;;;15.00;99.90;;;;;;5064137;28;20236;-71
2022/05/28 11:29:38;;;;;;;2.88;2.13;;;16.70;99.90;;;;;;5057601;28;20219;-73
2022/05/28 11:32:31;;;;;;;3.35;1.63;;;19.40;99.90;;;;;;5064873;28;20220;-74
2022/05/28 11:35:34;;;;;;;2.55;1.55;;;22.80;90.20;;;;;;5066029;28;20706;-75
2022/05/28 11:38:32;;;;;;;3.63;1.25;;;20.10;80.10;;;;;;5053005;28;20215;-74
2022/05/28 11:41:28;;;;;;;2.08;0.80;;;18.30;91.00;;;;;;5058025;28;20219;-74
2022/05/28 11:44:25;;;;;;;1.92;0.90;;;17.30;88.80;;;;;;5069208;28;20320;-75
2022/05/28 11:47:27;;;;;;;1.52;0.70;;;16.40;94.80;;;;;;5059283;28;20729;-74
2022/05/28 11:53:36;;;;;;;2.20;0.80;;;17.80;97.70;;;;;;5067985;28;20219;-74
2022/05/28 11:56:28;;;;;;;1.13;0.90;;;22.10;81.40;;;;;;5047280;28;20232;-74
2022/05/28 11:59:26;;;;;;;3.50;1.00;;;23.80;72.40;;;;;;5051820;28;20285;-75
2022/05/28 12:02:25;;;;;;;1.63;1.10;;;24.40;67.80;;;;;;5064351;28;20680;-74
2022/05/28 12:05:24;;;;;;;1.52;1.00;;;23.90;65.30;;;;;;5059311;28;20222;-74
2022/05/28 12:08:23;;;;;;;1.85;1.10;;;21.60;69.00;;;;;;5051085;28;20231;-75
2022/05/28 12:11:32;;;;;;;1.10;0.95;;;23.50;65.70;;;;;;5051978;28;20582;-74
2022/05/28 12:14:27;;;;;;;2.72;0.90;;;23.00;66.50;;;;;;5058921;28;20591;-74
2022/05/28 12:17:34;;;;;;;1.40;0.90;;;24.10;63.20;;;;;;5058501;28;20227;-74
2022/05/28 12:20:30;;;;;;;1.98;0.95;;;23.90;60.10;;;;;;5055756;28;20222;-75
2022/05/28 12:23:30;;;;;;;1.88;1.20;;;23.10;61.70;;;;;;5046656;28;20303;-76
2022/05/28 12:26:47;;;;;;;1.42;1.10;;;21.90;65.00;;;;;;5054094;28;20239;-75
2022/05/28 12:29:41;;;;;;;7.15;1.40;;;22.80;64.00;;;;;;5053898;28;20227;-74
2022/05/28 12:32:43;;;;;;;2.67;1.50;;;21.00;66.20;;;;;;5049215;28;20215;-74
2022/05/28 12:35:50;;;;;;;7.63;6.30;;;19.80;69.40;;;;;;5056258;28;20222;-74
2022/05/28 12:38:54;;;;;;;3.05;2.03;;;18.80;72.90;;;;;;5057453;28;20300;-74
2022/05/28 12:41:53;;;;;;;3.30;1.60;;;18.20;76.80;;;;;;5051788;28;20215;-74
2022/05/28 12:44:50;;;;;;;4.65;1.55;;;17.60;80.20;;;;;;5056573;28;20830;-69
2022/05/28 12:47:38;;;;;;;2.78;1.40;;;17.10;83.20;;;;;;5052236;28;20212;-72
2022/05/28 12:50:33;;;;;;;2.60;1.60;;;16.80;85.60;;;;;;5063249;28;20271;-74
2022/05/28 12:53:24;;;;;;;3.20;1.58;;;16.40;87.00;;;;;;5047945;28;20536;-73
2022/05/28 12:56:24;;;;;;;3.35;1.45;;;16.10;93.00;;;;;;5070481;28;20793;-75
2022/05/28 12:59:28;;;;;;;4.45;1.60;;;15.70;99.90;;;;;;5057797;28;20215;-74
2022/05/28 13:02:28;;;;;;;1.77;1.20;;;15.40;99.90;;;;;;5047241;28;20231;-74
2022/05/28 13:05:25;;;;;;;2.17;1.10;;;15.80;99.90;;;;;;5046173;28;20223;-74
2022/05/28 13:08:17;;;;;;;1.83;1.10;;;15.40;99.90;;;;;;5072129;28;20223;-74
2022/05/28 13:11:14;;;;;;;2.35;1.38;;;15.60;99.90;;;;;;5043700;28;20303;-73
2022/05/28 13:14:43;;;;;;;1.85;1.30;;;16.10;99.90;;;;;;5060602;28;20239;-74
2022/05/28 13:18:04;;;;;;;1.92;1.00;;;16.30;99.90;;;;;;5032387;28;20235;-75
2022/05/28 13:21:12;;;;;;;2.47;0.95;;;15.90;99.90;;;;;;5060741;28;20228;-74
2022/05/28 13:24:34;;;;;;;2.75;1.02;;;15.90;99.90;;;;;;5033603;28;20239;-74
2022/05/28 13:27:35;;;;;;;1.33;1.00;;;15.20;99.90;;;;;;5058903;28;20232;-74
2022/05/28 13:30:28;;;;;;;4.80;1.10;;;15.40;99.90;;;;;;5055267;28;20305;-73
2022/05/28 13:33:20;;;;;;;3.50;1.20;;;15.50;99.90;;;;;;5054520;28;20682;-74
2022/05/28 13:36:12;;;;;;;1.38;0.95;;;15.30;99.90;;;;;;5054443;28;20687;-75
2022/05/28 13:39:02;;;;;;;2.40;1.10;;;15.10;99.90;;;;;;5050785;28;20208;-74
2022/05/28 13:41:52;;;;;;;2.55;1.00;;;15.10;99.90;;;;;;5046052;28;20979;-75
2022/05/28 13:44:47;;;;;;;1.75;1.00;;;15.30;99.90;;;;;;5063756;28;20347;-75
2022/05/28 13:47:38;;;;;;;3.17;1.38;;;15.10;99.90;;;;;;5047490;28;20226;-76
2022/05/28 13:50:29;;;;;;;2.53;1.40;;;15.20;99.90;;;;;;5066103;28;20212;-74
2022/05/28 13:53:22;;;;;;;5.22;1.50;;;15.40;99.90;;;;;;5053212;28;20223;-75
2022/05/28 13:56:15;;;;;;;2.42;1.20;;;15.40;99.90;;;;;;5072992;28;20944;-75
2022/05/28 13:59:05;;;;;;;2.88;1.27;;;15.10;99.90;;;;;;5061508;28;20221;-75
2022/05/28 14:01:55;;;;;;;5.45;1.67;;;15.20;99.90;;;;;;5050453;28;20215;-75
2022/05/28 14:04:46;;;;;;;2.85;1.30;;;15.50;99.90;;;;;;5062874;28;20766;-73
2022/05/28 14:07:42;;;;;;;2.90;1.65;;;14.80;99.90;;;;;;5053712;28;20733;-73
2022/05/28 14:10:37;;;;;;;4.72;1.73;;;14.50;99.90;;;;;;5074767;28;20304;-74
2022/05/28 14:13:31;;;;;;;2.17;1.40;;;14.70;99.90;;;;;;5059355;28;20225;-73
2022/05/28 14:16:26;;;;;;;2.88;1.50;;;14.70;99.90;;;;;;5051893;28;20232;-72
2022/05/28 14:19:21;;;;;;;2.25;1.40;;;15.00;99.90;;;;;;5065722;28;20295;-74
2022/05/28 14:22:30;;;;;;;3.05;1.60;;;15.20;99.90;;;;;;5046158;28;20226;-74
2022/05/28 14:25:24;;;;;;;4.35;1.95;;;15.30;99.90;;;;;;5042948;28;20231;-74
2022/05/28 14:28:20;;;;;;;2.60;1.67;;;15.50;99.90;;;;;;5042208;28;20292;-74
2022/05/28 14:31:13;;;;;;;2.20;1.77;;;15.40;99.90;;;;;;5058842;28;20231;-75
2022/05/28 14:34:02;;;;;;;3.97;1.80;;;15.70;99.90;;;;;;5064003;28;20208;-73
2022/05/28 14:36:54;;;;;;;5.05;3.00;;;15.50;99.90;;;;;;5046644;28;20224;-74
2022/05/28 14:39:45;;;;;;;3.10;1.92;;;15.50;99.90;;;;;;5063847;28;20315;-72
2022/05/28 14:42:39;;;;;;;2.83;1.70;;;15.50;99.90;;;;;;5052294;28;20264;-73
2022/05/28 14:45:30;;;;;;;3.85;1.70;;;15.20;99.90;;;;;;5078207;28;20710;-73
2022/05/28 14:48:23;;;;;;;4.13;1.80;;;15.10;99.90;;;;;;5055055;28;20224;-73
2022/05/28 14:51:11;;;;;;;2.38;1.48;;;15.00;99.90;;;;;;5050557;28;20223;-74
2022/05/28 14:54:02;;;;;;;3.30;1.70;;;14.80;99.90;;;;;;5046577;28;20918;-72
2022/05/28 14:56:55;;;;;;;3.88;1.83;;;14.50;99.90;;;;;;5057394;28;20800;-73
2022/05/28 14:59:44;;;;;;;6.78;2.40;;;14.70;99.90;;;;;;5074216;28;20670;-72
2022/05/28 15:02:35;;;;;;;4.70;2.10;;;14.50;99.90;;;;;;5059716;28;20235;-73
2022/05/28 15:05:26;;;;;;;4.03;2.50;;;14.30;99.90;;;;;;5062312;28;20785;-72
2022/05/28 15:08:23;;;;;;;5.07;2.40;;;13.90;99.90;;;;;;5045355;28;20304;-72
2022/05/28 15:11:23;;;;;;;5.07;2.80;;;13.50;99.90;;;;;;5066932;28;20259;-73
2022/05/28 15:14:14;;;;;;;5.57;2.90;;;13.60;99.90;;;;;;5077395;28;20220;-72
2022/05/28 15:17:03;;;;;;;4.40;2.60;;;13.30;99.90;;;;;;5065260;28;20219;-70